createdAt,value
2023-08-07T00:00:41.220Z,14.70
2023-08-07T00:03:09.790Z,14.70
2023-08-07T00:05:38.091Z,14.70
2023-08-07T00:08:07.764Z,14.60
2023-08-07T00:10:35.939Z,14.60
2023-08-07T00:13:04.990Z,14.50
2023-08-07T00:15:34.440Z,14.50
2023-08-07T00:18:02.805Z,14.50
2023-08-07T00:20:31.074Z,14.40
2023-08-07T00:22:59.304Z,14.40
2023-08-07T00:25:29.042Z,14.30
2023-08-07T00:27:57.281Z,14.30
2023-08-07T00:30:25.494Z,14.30
2023-08-07T00:32:53.745Z,14.30
2023-08-07T00:35:22.071Z,14.30
2023-08-07T00:37:50.259Z,14.20
2023-08-07T00:40:19.617Z,14.20
2023-08-07T00:42:49.440Z,14.20
2023-08-07T00:45:18.734Z,14.30
2023-08-07T00:47:47.280Z,14.20
2023-08-07T00:50:16.660Z,14.20
2023-08-07T00:52:44.913Z,14.30
2023-08-07T00:55:13.913Z,14.30
2023-08-07T00:57:42.335Z,14.20
2023-08-07T01:00:14.149Z,14.20
2023-08-07T01:02:42.460Z,14.20
2023-08-07T01:05:10.804Z,14.20
2023-08-07T01:07:39.013Z,14.10
2023-08-07T01:10:08.470Z,14.10
2023-08-07T01:12:45.379Z,14.10
2023-08-07T01:15:18.327Z,14.10
2023-08-07T01:17:48.509Z,14.10
2023-08-07T01:20:17.107Z,14.10
2023-08-07T01:22:46.643Z,14.00
2023-08-07T01:25:14.829Z,14.00
2023-08-07T01:27:51.801Z,14.10
2023-08-07T01:30:24.928Z,14.10
2023-08-07T01:33:01.528Z,14.10
2023-08-07T01:35:34.694Z,14.10
2023-08-07T01:38:04.492Z,14.10
2023-08-07T01:40:33.152Z,14.20
2023-08-07T01:43:01.903Z,14.20
2023-08-07T01:45:31.452Z,14.20
2023-08-07T01:47:59.803Z,14.20
2023-08-07T01:50:28.143Z,14.20
2023-08-07T01:52:56.383Z,14.30
2023-08-07T01:55:26.011Z,14.30
2023-08-07T01:57:54.399Z,14.40
2023-08-07T02:00:23.081Z,14.40
2023-08-07T02:02:51.521Z,14.50
2023-08-07T02:05:20.058Z,14.50
2023-08-07T02:07:48.303Z,14.50
2023-08-07T02:10:16.489Z,14.50
2023-08-07T02:12:46.770Z,14.60
2023-08-07T02:15:15.038Z,14.50
2023-08-07T02:17:43.796Z,14.60
2023-08-07T02:20:13.030Z,14.60
2023-08-07T02:22:41.304Z,14.50
2023-08-07T02:25:10.354Z,14.60
2023-08-07T02:27:38.554Z,14.60
2023-08-07T02:30:09.267Z,14.60
2023-08-07T02:32:37.842Z,14.60
2023-08-07T02:35:06.711Z,14.60
2023-08-07T02:37:34.941Z,14.60
2023-08-07T02:40:03.578Z,14.60
2023-08-07T02:42:31.909Z,14.60
2023-08-07T02:45:00.144Z,14.60
2023-08-07T02:47:29.697Z,14.70
2023-08-07T02:49:58.037Z,14.70
2023-08-07T02:52:26.392Z,14.70
2023-08-07T02:54:54.651Z,14.60
2023-08-07T02:57:22.952Z,14.60
2023-08-07T02:59:51.690Z,14.60
2023-08-07T03:02:19.993Z,14.50
2023-08-07T03:04:49.803Z,14.50
2023-08-07T03:07:18.055Z,14.50
2023-08-07T03:09:48.494Z,14.40
2023-08-07T03:12:16.748Z,14.40
2023-08-07T03:14:45.102Z,14.30
2023-08-07T03:17:13.297Z,14.30
2023-08-07T03:19:44.187Z,14.30
2023-08-07T03:22:13.800Z,14.20
2023-08-07T03:24:42.088Z,14.20
2023-08-07T03:27:10.439Z,14.20
2023-08-07T03:29:38.632Z,14.20
2023-08-07T03:32:07.172Z,14.10
2023-08-07T03:34:35.362Z,14.10
2023-08-07T03:37:03.677Z,14.00
2023-08-07T03:39:33.227Z,14.00
2023-08-07T03:42:01.495Z,14.00
2023-08-07T03:44:29.702Z,13.90
2023-08-07T03:46:58.858Z,13.90
2023-08-07T03:49:27.112Z,13.90
2023-08-07T03:51:55.318Z,13.90
2023-08-07T03:54:23.632Z,13.90
2023-08-07T03:56:53.544Z,13.90
2023-08-07T03:59:22.036Z,13.90
2023-08-07T04:01:50.248Z,13.90
2023-08-07T04:04:18.457Z,13.90
2023-08-07T04:06:46.821Z,13.90
2023-08-07T04:09:15.139Z,13.90
2023-08-07T04:11:43.380Z,13.90
2023-08-07T04:14:13.103Z,13.90
2023-08-07T04:16:41.760Z,13.90
2023-08-07T04:19:09.944Z,13.90
2023-08-07T04:21:38.201Z,13.90
2023-08-07T04:24:11.620Z,13.90
2023-08-07T04:26:40.347Z,13.90
2023-08-07T04:29:08.701Z,13.90
2023-08-07T04:31:38.676Z,13.90
2023-08-07T04:34:06.981Z,13.90
2023-08-07T04:36:35.344Z,13.90
2023-08-07T04:39:04.007Z,13.80
2023-08-07T04:41:32.286Z,13.80
2023-08-07T04:44:00.538Z,13.80
2023-08-07T04:46:29.055Z,13.80
2023-08-07T04:49:00.012Z,13.70
2023-08-07T04:51:31.546Z,13.70
2023-08-07T04:54:00.206Z,13.70
2023-08-07T04:56:28.453Z,13.70
2023-08-07T04:58:56.695Z,13.70
2023-08-07T05:01:25.012Z,13.70
2023-08-07T05:03:53.463Z,13.70
2023-08-07T05:06:23.270Z,13.80
2023-08-07T05:08:51.688Z,13.80
2023-08-07T05:11:21.320Z,13.90
2023-08-07T05:13:49.670Z,13.90
2023-08-07T05:16:19.995Z,13.90
2023-08-07T05:18:50.859Z,13.90
2023-08-07T05:21:19.747Z,13.90
2023-08-07T05:23:54.322Z,13.90
2023-08-07T05:26:22.578Z,13.90
2023-08-07T05:28:50.796Z,13.90
2023-08-07T05:31:19.078Z,13.90
2023-08-07T05:33:47.795Z,14.00
2023-08-07T05:36:16.028Z,14.00
2023-08-07T05:38:44.717Z,14.00
2023-08-07T05:41:14.677Z,14.00
2023-08-07T05:43:42.889Z,14.00
2023-08-07T05:46:11.172Z,14.00
2023-08-07T05:48:39.399Z,14.10
2023-08-07T05:51:08.156Z,14.10
2023-08-07T05:53:37.720Z,14.10
2023-08-07T05:56:06.201Z,14.10
2023-08-07T05:58:35.992Z,14.20
2023-08-07T06:01:04.236Z,14.20
2023-08-07T06:03:32.937Z,14.20
2023-08-07T06:06:01.701Z,14.20
2023-08-07T06:08:30.307Z,14.20
2023-08-07T06:10:58.477Z,14.20
2023-08-07T06:13:35.442Z,14.20
2023-08-07T06:16:07.167Z,14.20
2023-08-07T06:18:36.649Z,14.20
2023-08-07T06:21:07.721Z,14.20
2023-08-07T06:23:36.670Z,14.10
2023-08-07T06:26:06.264Z,14.10
2023-08-07T06:28:35.354Z,14.10
2023-08-07T06:31:04.268Z,14.00
2023-08-07T06:33:34.405Z,13.90
2023-08-07T06:36:03.187Z,13.90
2023-08-07T06:38:31.600Z,13.80
2023-08-07T06:40:59.907Z,13.80
2023-08-07T06:43:28.372Z,13.80
2023-08-07T06:45:58.338Z,13.70
2023-08-07T06:48:26.682Z,13.70
2023-08-07T06:50:56.254Z,13.60
2023-08-07T06:53:24.514Z,13.50
2023-08-07T06:55:55.286Z,13.50
2023-08-07T06:58:24.885Z,13.50
2023-08-07T07:00:53.353Z,13.50
2023-08-07T07:03:22.065Z,13.40
2023-08-07T07:05:51.510Z,13.50
2023-08-07T07:08:21.072Z,13.50
2023-08-07T07:10:49.716Z,13.40
2023-08-07T07:13:17.923Z,13.40
2023-08-07T07:15:46.310Z,13.40
2023-08-07T07:18:14.659Z,13.40
2023-08-07T07:20:42.987Z,13.30
2023-08-07T07:23:11.214Z,13.30
2023-08-07T07:25:40.988Z,13.30
2023-08-07T07:28:09.238Z,13.40
2023-08-07T07:30:37.644Z,13.40
2023-08-07T07:33:06.113Z,13.40
2023-08-07T07:35:36.481Z,13.40
2023-08-07T07:38:04.843Z,13.40
2023-08-07T07:40:33.418Z,13.40
2023-08-07T07:43:03.106Z,13.40
2023-08-07T07:45:31.403Z,13.40
2023-08-07T07:47:59.963Z,13.50
2023-08-07T07:50:28.178Z,13.50
2023-08-07T07:52:56.684Z,13.50
2023-08-07T07:55:24.996Z,13.50
2023-08-07T07:57:53.192Z,13.50
2023-08-07T08:00:27.244Z,13.60
2023-08-07T08:02:55.672Z,13.60
2023-08-07T08:05:23.986Z,13.60
2023-08-07T08:07:52.315Z,13.70
2023-08-07T08:10:20.468Z,13.70
2023-08-07T08:12:48.769Z,13.80
2023-08-07T08:15:17.186Z,13.80
2023-08-07T08:17:46.826Z,13.90
2023-08-07T08:20:19.144Z,13.90
2023-08-07T08:22:47.595Z,14.00
2023-08-07T08:25:16.110Z,14.10
2023-08-07T08:27:44.281Z,14.10
2023-08-07T08:30:13.374Z,14.20
2023-08-07T08:32:41.709Z,14.30
2023-08-07T08:35:12.666Z,14.30
2023-08-07T08:37:41.444Z,14.40
2023-08-07T08:40:13.043Z,14.40
2023-08-07T08:42:42.168Z,14.50
2023-08-07T08:45:12.787Z,14.50
2023-08-07T08:47:41.701Z,14.50
2023-08-07T08:50:13.558Z,14.50
2023-08-07T08:52:44.881Z,14.60
2023-08-07T08:55:14.163Z,14.60
2023-08-07T08:57:43.115Z,14.60
2023-08-07T09:00:19.055Z,14.60
2023-08-07T09:02:48.167Z,14.70
2023-08-07T09:05:19.796Z,14.70
2023-08-07T09:07:48.845Z,14.80
2023-08-07T09:10:18.170Z,14.80
2023-08-07T09:12:53.229Z,14.90
2023-08-07T09:15:22.540Z,15.00
2023-08-07T09:17:54.117Z,15.10
2023-08-07T09:20:24.130Z,15.20
2023-08-07T09:22:52.462Z,15.30
2023-08-07T09:25:29.827Z,15.40
2023-08-07T09:27:58.792Z,15.40
2023-08-07T09:30:29.574Z,15.60
2023-08-07T09:32:59.250Z,15.50
2023-08-07T09:35:30.701Z,15.70
2023-08-07T09:37:59.184Z,15.70
2023-08-07T09:40:27.668Z,15.80
2023-08-07T09:42:56.737Z,15.80
2023-08-07T09:45:26.455Z,15.90
2023-08-07T09:48:01.728Z,15.90
2023-08-07T09:50:32.879Z,16.00
2023-08-07T09:53:01.698Z,16.00
2023-08-07T09:55:30.018Z,16.10
2023-08-07T09:57:58.620Z,16.20
2023-08-07T10:00:27.136Z,16.20
2023-08-07T10:02:56.614Z,16.30
2023-08-07T10:05:25.106Z,16.30
2023-08-07T10:07:55.783Z,16.40
2023-08-07T10:10:24.224Z,16.50
2023-08-07T10:12:53.471Z,16.50
2023-08-07T10:15:23.127Z,16.60
2023-08-07T10:17:51.378Z,16.60
2023-08-07T10:20:19.952Z,16.70
2023-08-07T10:22:48.669Z,16.70
2023-08-07T10:25:22.546Z,16.80
2023-08-07T10:27:54.393Z,16.90
2023-08-07T10:30:24.493Z,16.90
2023-08-07T10:32:53.687Z,17.00
2023-08-07T10:35:28.170Z,17.10
2023-08-07T10:37:56.419Z,17.20
2023-08-07T10:40:27.858Z,17.20
2023-08-07T10:43:00.810Z,17.30
2023-08-07T10:45:30.232Z,17.30
2023-08-07T10:48:20.145Z,17.50
2023-08-07T10:50:53.389Z,17.60
2023-08-07T10:53:23.213Z,17.70
2023-08-07T10:55:53.009Z,17.80
2023-08-07T10:58:26.048Z,18.00
2023-08-07T11:01:15.145Z,18.20
2023-08-07T11:03:45.004Z,18.30
2023-08-07T11:06:13.260Z,18.40
2023-08-07T11:08:42.479Z,18.40
2023-08-07T11:11:12.080Z,18.40
2023-08-07T11:13:40.336Z,18.30
2023-08-07T11:16:09.468Z,18.40
2023-08-07T11:18:39.766Z,18.40
2023-08-07T11:21:08.040Z,18.40
2023-08-07T11:23:36.706Z,18.50
2023-08-07T11:26:05.059Z,18.50
2023-08-07T11:28:35.012Z,18.60
2023-08-07T11:31:03.615Z,18.60
2023-08-07T11:33:31.905Z,18.70
2023-08-07T11:36:00.295Z,18.80
2023-08-07T11:38:33.045Z,18.90
2023-08-07T11:41:02.921Z,19.00
2023-08-07T11:43:31.929Z,19.10
2023-08-07T11:46:03.343Z,19.20
2023-08-07T11:48:32.926Z,19.30
2023-08-07T11:51:02.086Z,19.30
2023-08-07T11:53:31.892Z,19.40
2023-08-07T11:56:01.889Z,19.40
2023-08-07T11:58:36.268Z,19.40
2023-08-07T12:01:08.279Z,19.40
2023-08-07T12:03:39.790Z,19.40
2023-08-07T12:06:10.242Z,19.30
2023-08-07T12:08:39.929Z,19.40
2023-08-07T12:11:10.109Z,19.50
2023-08-07T12:13:40.777Z,19.60
2023-08-07T12:16:11.303Z,19.70
2023-08-07T12:18:40.798Z,19.80
2023-08-07T12:21:10.094Z,19.90
2023-08-07T12:23:38.879Z,19.90
2023-08-07T12:26:08.141Z,19.90
2023-08-07T12:28:37.423Z,20.00
2023-08-07T12:31:06.164Z,20.00
2023-08-07T12:33:36.382Z,20.00
2023-08-07T12:36:05.105Z,20.20
2023-08-07T12:38:33.357Z,20.30
2023-08-07T12:41:02.326Z,20.30
2023-08-07T12:43:32.508Z,20.40
2023-08-07T12:48:32.727Z,20.40
2023-08-07T12:51:02.545Z,20.50
2023-08-07T12:53:32.785Z,20.60
2023-08-07T12:56:01.156Z,20.70
2023-08-07T12:58:30.545Z,20.80
2023-08-07T13:00:59.380Z,20.90
2023-08-07T13:03:27.653Z,20.90
2023-08-07T13:05:55.939Z,21.10
2023-08-07T13:08:25.537Z,21.20
2023-08-07T13:10:54.934Z,21.40
2023-08-07T13:13:23.131Z,21.60
2023-08-07T13:15:52.806Z,22.00
2023-08-07T13:18:22.964Z,22.20
2023-08-07T13:20:52.053Z,22.40
2023-08-07T13:23:21.254Z,22.40
2023-08-07T13:25:50.817Z,22.40
2023-08-07T13:28:19.359Z,22.30
2023-08-07T13:30:47.559Z,22.40
2023-08-07T13:33:15.864Z,22.60
2023-08-07T13:35:44.144Z,22.90
2023-08-07T13:38:13.994Z,23.20
2023-08-07T13:40:42.171Z,23.40
2023-08-07T13:43:11.739Z,23.30
2023-08-07T13:45:40.143Z,23.00
2023-08-07T13:48:10.603Z,23.00
2023-08-07T13:50:39.869Z,23.10
2023-08-07T13:53:14.513Z,23.10
2023-08-07T13:55:44.758Z,23.00
2023-08-07T13:58:16.657Z,22.70
2023-08-07T14:00:45.677Z,22.30
2023-08-07T14:03:14.718Z,22.00
2023-08-07T14:05:43.126Z,21.80
2023-08-07T14:08:12.292Z,21.60
2023-08-07T14:10:42.514Z,21.60
2023-08-07T14:13:12.544Z,21.90
2023-08-07T14:15:42.629Z,22.20
2023-08-07T14:18:12.177Z,22.70
2023-08-07T14:23:30.497Z,23.40
2023-08-07T14:26:00.216Z,23.70
2023-08-07T14:28:29.685Z,23.70
2023-08-07T14:31:01.223Z,23.50
2023-08-07T14:33:30.785Z,23.20
2023-08-07T14:35:59.025Z,22.80
2023-08-07T14:38:27.327Z,22.50
2023-08-07T14:40:56.502Z,22.10
2023-08-07T14:43:24.864Z,21.80
2023-08-07T14:45:54.335Z,21.90
2023-08-07T14:48:24.116Z,22.10
2023-08-07T14:50:52.489Z,22.20
2023-08-07T14:53:20.725Z,22.20
2023-08-07T14:55:48.974Z,22.30
2023-08-07T14:58:17.348Z,22.40
2023-08-07T15:00:45.798Z,22.60
2023-08-07T15:03:14.035Z,22.70
2023-08-07T15:05:43.597Z,22.80
2023-08-07T15:08:11.790Z,23.00
2023-08-07T15:10:41.700Z,23.30
2023-08-07T15:13:10.055Z,23.60
2023-08-07T15:15:38.267Z,24.10
2023-08-07T15:18:06.793Z,24.60
2023-08-07T15:20:36.865Z,24.80
2023-08-07T15:23:06.715Z,25.30
2023-08-07T15:25:34.959Z,25.60
2023-08-07T15:28:04.913Z,25.80
2023-08-07T15:30:34.948Z,26.00
2023-08-07T15:33:03.376Z,26.20
2023-08-07T15:35:32.942Z,26.30
2023-08-07T15:38:02.059Z,26.50
2023-08-07T15:40:31.683Z,26.30
2023-08-07T15:42:59.911Z,25.80
2023-08-07T15:45:28.162Z,25.60
2023-08-07T15:47:56.359Z,25.60
2023-08-07T15:50:24.756Z,25.70
2023-08-07T15:52:53.040Z,25.80
2023-08-07T15:55:21.496Z,25.70
2023-08-07T15:57:51.275Z,25.30
2023-08-07T16:00:20.737Z,25.00
2023-08-07T16:02:49.632Z,25.00
2023-08-07T16:05:17.996Z,24.90
2023-08-07T16:07:46.342Z,24.80
2023-08-07T16:10:14.606Z,24.80
2023-08-07T16:12:42.828Z,24.90
2023-08-07T16:15:12.735Z,25.00
2023-08-07T16:17:41.027Z,25.10
2023-08-07T16:20:09.824Z,25.10
2023-08-07T16:22:38.087Z,24.90
2023-08-07T16:25:07.420Z,24.70
2023-08-07T16:27:36.244Z,24.50
2023-08-07T16:30:08.587Z,24.40
2023-08-07T16:32:39.236Z,24.20
2023-08-07T16:35:08.933Z,24.00
2023-08-07T16:37:37.233Z,23.80
2023-08-07T16:40:06.756Z,23.60
2023-08-07T16:42:34.962Z,23.40
2023-08-07T16:45:03.834Z,23.20
2023-08-07T16:47:32.091Z,23.00
2023-08-07T16:50:01.690Z,22.70
2023-08-07T16:52:29.937Z,22.50
2023-08-07T16:54:58.198Z,22.30
2023-08-07T16:57:26.390Z,22.10
2023-08-07T16:59:54.634Z,21.90
2023-08-07T17:02:25.466Z,21.70
2023-08-07T17:04:53.670Z,21.50
2023-08-07T17:07:23.238Z,21.50
2023-08-07T17:09:51.567Z,21.40
2023-08-07T17:12:19.802Z,21.30
2023-08-07T17:14:47.995Z,21.20
2023-08-07T17:17:16.177Z,21.10
2023-08-07T17:19:45.867Z,21.10
2023-08-07T17:22:14.089Z,21.00
2023-08-07T17:24:43.670Z,20.90
2023-08-07T17:27:11.972Z,21.00
2023-08-07T17:29:40.292Z,21.00
2023-08-07T17:32:08.661Z,21.00
2023-08-07T17:34:37.123Z,21.00
2023-08-07T17:37:06.769Z,21.00
2023-08-07T17:39:35.193Z,21.00
2023-08-07T17:42:05.444Z,20.90
2023-08-07T17:44:33.656Z,20.90
2023-08-07T17:47:02.211Z,20.90
2023-08-07T17:49:30.691Z,20.80
2023-08-07T17:51:58.959Z,20.80
2023-08-07T17:54:27.286Z,20.80
2023-08-07T17:56:55.567Z,20.80
2023-08-07T17:59:25.607Z,20.80
2023-08-07T18:01:53.815Z,20.80
2023-08-07T18:04:22.063Z,20.70
2023-08-07T18:06:50.566Z,20.70
2023-08-07T18:09:18.828Z,20.70
2023-08-07T18:11:47.031Z,20.70
2023-08-07T18:14:15.235Z,20.70
2023-08-07T18:16:44.782Z,20.70
2023-08-07T18:19:14.240Z,20.70
2023-08-07T18:21:42.554Z,20.60
2023-08-07T18:24:10.777Z,20.60
2023-08-07T18:26:38.988Z,20.60
2023-08-07T18:29:07.197Z,20.50
2023-08-07T18:31:35.628Z,20.60
2023-08-07T18:34:05.234Z,20.50
2023-08-07T18:36:34.948Z,20.50
2023-08-07T18:39:03.349Z,20.50
2023-08-07T18:41:31.579Z,20.50
2023-08-07T18:43:59.823Z,20.40
2023-08-07T18:46:28.062Z,20.40
2023-08-07T18:48:56.611Z,20.30
2023-08-07T18:51:26.246Z,20.20
2023-08-07T18:53:54.535Z,20.20
2023-08-07T18:56:23.063Z,20.10
2023-08-07T18:58:51.377Z,20.00
2023-08-07T19:01:19.922Z,20.00
2023-08-07T19:03:48.367Z,19.90
2023-08-07T19:06:16.766Z,19.90
2023-08-07T19:08:46.584Z,19.80
2023-08-07T19:11:15.139Z,19.70
2023-08-07T19:13:43.354Z,19.70
2023-08-07T19:16:11.530Z,19.60
2023-08-07T19:18:39.811Z,19.50
2023-08-07T19:21:08.413Z,19.40
2023-08-07T19:23:37.102Z,19.40
2023-08-07T19:26:06.701Z,19.40
2023-08-07T19:28:35.236Z,19.30
2023-08-07T19:31:06.499Z,19.30
2023-08-07T19:33:35.886Z,19.20
2023-08-07T19:36:04.180Z,19.20
2023-08-07T19:38:32.425Z,19.10
2023-08-07T19:41:01.256Z,19.00
2023-08-07T19:43:30.936Z,19.00
2023-08-07T19:45:59.574Z,18.90
2023-08-07T19:48:27.954Z,18.90
2023-08-07T19:50:56.899Z,18.80
2023-08-07T19:53:25.150Z,18.70
2023-08-07T19:55:53.373Z,18.70
2023-08-07T19:58:21.623Z,18.70
2023-08-07T20:00:51.316Z,18.60
2023-08-07T20:03:19.536Z,18.60
2023-08-07T20:05:47.718Z,18.60
2023-08-07T20:08:15.973Z,18.60
2023-08-07T20:10:44.188Z,18.50
2023-08-07T20:13:12.451Z,18.40
2023-08-07T20:15:40.866Z,18.40
2023-08-07T20:18:10.524Z,18.30
2023-08-07T20:20:38.954Z,18.20
2023-08-07T20:23:07.819Z,18.10
2023-08-07T20:25:36.116Z,18.10
2023-08-07T20:28:04.494Z,18.10
2023-08-07T20:30:32.828Z,18.00
2023-08-07T20:33:01.089Z,18.00
2023-08-07T20:35:30.839Z,18.00
2023-08-07T20:37:59.104Z,17.90
2023-08-07T20:40:27.803Z,17.70
2023-08-07T20:42:56.317Z,17.60
2023-08-07T20:45:24.505Z,17.50
2023-08-07T20:47:52.834Z,17.40
2023-08-07T20:50:21.357Z,17.30
2023-08-07T20:52:55.038Z,17.20
2023-08-07T20:55:23.550Z,17.10
2023-08-07T20:57:51.745Z,17.00
2023-08-07T21:00:20.261Z,16.90
2023-08-07T21:02:48.510Z,16.90
2023-08-07T21:05:16.999Z,16.80
2023-08-07T21:07:45.467Z,16.80
2023-08-07T21:10:15.196Z,16.70
2023-08-07T21:12:43.466Z,16.70
2023-08-07T21:15:12.363Z,16.70
2023-08-07T21:17:41.030Z,16.70
2023-08-07T21:20:11.507Z,16.70
2023-08-07T21:22:39.995Z,16.60
2023-08-07T21:25:09.194Z,16.60
2023-08-07T21:27:38.744Z,16.60
2023-08-07T21:30:08.093Z,16.70
2023-08-07T21:32:36.409Z,16.70
2023-08-07T21:35:05.332Z,16.70
2023-08-07T21:37:33.965Z,16.80
2023-08-07T21:40:02.388Z,16.70
2023-08-07T21:42:30.708Z,16.80
2023-08-07T21:45:00.439Z,16.70
2023-08-07T21:47:28.697Z,16.70
2023-08-07T21:49:56.981Z,16.70
2023-08-07T21:52:25.241Z,16.80
2023-08-07T21:54:53.747Z,16.70
2023-08-07T21:57:21.946Z,16.70
2023-08-07T21:59:50.334Z,16.70
2023-08-07T22:02:19.883Z,16.70
2023-08-07T22:04:48.222Z,16.70
2023-08-07T22:07:16.431Z,16.70
2023-08-07T22:09:44.900Z,16.70
2023-08-07T22:12:13.737Z,16.60
2023-08-07T22:14:42.054Z,16.60
2023-08-07T22:17:10.618Z,16.60
2023-08-07T22:19:43.456Z,16.70
2023-08-07T22:22:14.241Z,16.70
2023-08-07T22:24:42.467Z,16.70
2023-08-07T22:27:10.665Z,16.70
2023-08-07T22:29:38.960Z,16.70
2023-08-07T22:32:07.514Z,16.70
2023-08-07T22:34:35.872Z,16.70
2023-08-07T22:37:05.694Z,16.70
2023-08-07T22:39:33.928Z,16.60
2023-08-07T22:42:02.156Z,16.50
2023-08-07T22:44:30.643Z,16.60
2023-08-07T22:46:59.039Z,16.50
2023-08-07T22:49:28.392Z,16.50
2023-08-07T22:51:59.299Z,16.50
2023-08-07T22:54:29.034Z,16.50
2023-08-07T22:56:57.290Z,16.50
2023-08-07T22:59:25.503Z,16.50
2023-08-07T23:01:53.903Z,16.50
2023-08-07T23:04:22.221Z,16.60
2023-08-07T23:06:50.648Z,16.60
2023-08-07T23:09:20.368Z,16.60
2023-08-07T23:11:49.962Z,16.60
2023-08-07T23:14:18.191Z,16.60
2023-08-07T23:16:46.392Z,16.60
2023-08-07T23:19:14.903Z,16.60
2023-08-07T23:21:43.163Z,16.60
2023-08-07T23:24:11.522Z,16.60
2023-08-07T23:26:40.770Z,16.60
2023-08-07T23:29:10.442Z,16.60
2023-08-07T23:31:38.939Z,16.60
2023-08-07T23:34:07.437Z,16.60
2023-08-07T23:36:35.866Z,16.60
2023-08-07T23:39:04.111Z,16.70
2023-08-07T23:41:32.362Z,16.70
2023-08-07T23:44:00.761Z,16.70
2023-08-07T23:46:30.322Z,16.80
2023-08-07T23:48:58.861Z,16.90
2023-08-07T23:51:27.501Z,16.80
2023-08-07T23:53:56.036Z,16.80
2023-08-07T23:56:24.309Z,16.80
2023-08-07T23:58:52.698Z,16.80
